Time;durP1;ratioP1;P1;durP2;ratioP2;P2;SDS_P1;SDS_P2;PMS_P1;PMS_P2;Temp;Humidity;BMP_temperature;BMP_pressure;BME280_temperature;BME280_humidity;BME280_pressure;Samples;Min_cycle;Max_cycle;Signal;HPM_P1;HPM_P2
2022/09/04 00:01:37;;;;;;;16.92;11.05;;;10.90;1.00;;;11.22;88.26;99958.38;5021295;28;129150;-70
2022/09/04 00:04:21;;;;;;;18.63;9.95;;;10.90;1.00;;;11.32;87.66;99956.25;5021575;28;119548;-68
2022/09/04 00:07:02;;;;;;;14.35;7.90;;;10.90;1.00;;;11.46;86.85;99969.81;5017941;28;120409;-67
2022/09/04 00:09:38;;;;;;;28.77;18.75;;;10.90;1.00;;;11.50;86.70;99956.44;4997809;28;129543;-66
2022/09/04 00:12:09;;;;;;;31.43;19.10;;;10.90;1.00;;;11.49;87.19;99961.06;4998740;28;129586;-68
2022/09/04 00:14:47;;;;;;;22.70;13.93;;;10.90;1.00;;;11.48;87.35;99954.03;4999058;28;119815;-69
2022/09/04 00:17:23;;;;;;;14.95;8.85;;;10.90;1.00;;;11.54;87.16;99956.63;5001008;28;118839;-66
2022/09/04 00:19:58;;;;;;;12.90;7.37;;;11.00;1.00;;;11.61;86.97;99951.56;4998625;28;130153;-69
2022/09/04 00:22:35;;;;;;;12.05;6.88;;;11.00;2.10;;;11.66;86.44;99960.41;4998478;28;129433;-67
2022/09/04 00:25:13;;;;;;;12.60;7.10;;;11.00;1.00;;;11.59;86.69;99959.22;4998727;28;119764;-67
2022/09/04 00:27:47;;;;;;;13.85;7.70;;;11.00;1.00;;;11.54;87.20;99956.63;4999339;28;120175;-66
2022/09/04 00:30:20;;;;;;;12.50;7.07;;;11.10;1.00;;;11.58;87.26;99969.31;5003046;28;129775;-66
2022/09/04 00:33:00;;;;;;;15.77;10.20;;;11.10;1.00;;;11.58;87.31;99963.84;5003788;28;128290;-69
2022/09/04 00:35:35;;;;;;;16.02;9.50;;;11.10;1.00;;;11.61;87.29;99970.56;5000968;28;122804;-66
2022/09/04 00:38:11;;;;;;;12.93;7.55;;;11.10;1.00;;;11.54;88.07;99967.50;5001891;28;121817;-66
2022/09/04 00:40:43;;;;;;;14.32;7.82;;;11.10;1.20;;;11.59;87.58;99960.00;5001492;28;130581;-67
2022/09/04 00:43:58;;;;;;;13.45;6.57;;;11.10;2.40;;;11.58;87.58;99965.78;5001767;28;129845;-67
2022/09/04 00:46:56;;;;;;;10.07;6.55;;;11.00;3.60;;;11.51;88.58;99958.84;5001892;28;119718;-70
2022/09/04 00:49:58;;;;;;;;;;;11.00;6.50;;;11.43;89.26;99956.84;5002445;28;119642;-68
2022/09/04 00:52:53;;;;;;;12.23;7.25;;;11.00;9.20;;;11.41;89.06;99964.50;4995201;28;130737;-72
2022/09/04 00:55:44;;;;;;;13.15;6.15;;;11.10;8.00;;;11.25;90.94;99961.31;5017433;28;131675;-69
2022/09/04 00:58:41;;;;;;;16.17;8.07;;;11.00;12.50;;;11.20;91.17;99960.63;5021871;28;120142;-68
2022/09/04 01:01:19;;;;;;;14.20;8.45;;;11.00;14.60;;;11.19;90.96;99967.16;5021719;28;119670;-69
2022/09/04 01:04:19;;;;;;;13.68;8.30;;;11.00;8.80;;;11.18;89.95;99960.91;5022563;28;130169;-68
2022/09/04 01:07:02;;;;;;;19.67;11.38;;;11.00;1.00;;;11.25;89.90;99965.94;5011725;27;129539;-66
2022/09/04 01:09:57;;;;;;;11.88;6.32;;;11.10;1.00;;;11.30;88.98;99966.63;5021569;28;119696;-66
2022/09/04 01:12:38;;;;;;;19.17;5.80;;;11.10;1.00;;;11.29;88.70;99962.31;5021488;28;119547;-69
2022/09/04 01:15:16;;;;;;;15.05;6.43;;;11.10;1.00;;;11.31;89.11;99959.28;5023137;28;129856;-66
2022/09/04 01:18:00;;;;;;;11.90;5.60;;;11.10;1.00;;;11.32;89.08;99971.78;5021202;28;129988;-67
2022/09/04 01:20:51;;;;;;;13.02;5.93;;;11.10;1.00;;;11.34;89.10;99974.97;5021397;28;119731;-66
2022/09/04 01:23:35;;;;;;;12.88;7.57;;;11.10;1.00;;;11.37;88.96;99966.22;5023660;28;118680;-67
2022/09/04 01:26:21;;;;;;;13.43;7.97;;;11.10;1.00;;;11.43;88.80;99962.28;5022749;28;129004;-68
2022/09/04 01:29:09;;;;;;;14.90;9.65;;;11.10;1.00;;;11.46;88.95;99958.16;5021156;28;129431;-66
2022/09/04 01:31:48;;;;;;;11.60;8.02;;;11.10;1.00;;;11.43;88.58;99962.28;5021938;28;121694;-67
2022/09/04 01:34:38;;;;;;;13.73;8.20;;;11.10;1.00;;;11.39;88.36;99966.72;5021063;28;121964;-67
2022/09/04 01:37:25;;;;;;;10.40;5.47;;;11.10;1.00;;;11.42;88.15;99959.88;5020749;28;130736;-67
2022/09/04 01:40:18;;;;;;;13.85;7.13;;;11.10;1.00;;;11.33;88.26;99967.94;5022484;27;128364;-67
2022/09/04 01:42:54;;;;;;;15.10;6.82;;;11.10;1.00;;;11.25;88.19;99965.94;5021236;28;120048;-66
2022/09/04 01:45:38;;;;;;;10.32;4.32;;;11.00;1.00;;;11.27;88.66;99961.03;5021227;28;120483;-67
2022/09/04 01:48:09;;;;;;;8.00;4.55;;;11.00;1.00;;;11.28;88.41;99960.72;5020967;28;130396;-66
2022/09/04 01:50:38;;;;;;;11.45;6.30;;;10.90;1.00;;;11.25;88.60;99961.31;5021305;28;129846;-67
2022/09/04 01:53:17;;;;;;;12.68;6.82;;;10.90;1.00;;;11.21;88.76;99965.75;5021085;28;120143;-65
2022/09/04 01:55:57;;;;;;;13.02;7.38;;;10.90;1.00;;;11.29;88.07;99950.63;5021038;28;119952;-68
2022/09/04 01:58:39;;;;;;;10.77;6.05;;;10.90;1.00;;;11.41;87.23;99958.28;5021434;28;129570;-66
2022/09/04 02:01:19;;;;;;;7.93;4.25;;;10.90;1.00;;;11.41;86.88;99961.78;5020348;28;129849;-65
2022/09/04 02:03:59;;;;;;;9.10;4.03;;;10.90;1.00;;;11.39;86.88;99958.59;5023114;28;119692;-74
2022/09/04 02:06:36;;;;;;;8.90;3.78;;;10.90;1.00;;;11.39;86.79;99966.72;5020810;28;119566;-67
2022/09/04 02:09:25;;;;;;;8.55;4.38;;;10.90;1.00;;;11.34;87.16;99974.97;5021984;28;129643;-68
2022/09/04 02:12:05;;;;;;;15.52;8.05;;;10.90;1.00;;;11.30;87.65;99968.56;5020316;28;129784;-68
2022/09/04 02:14:48;;;;;;;8.82;4.57;;;10.80;1.00;;;11.26;87.88;99972.97;5020625;28;119948;-66
2022/09/04 02:17:26;;;;;;;7.65;4.80;;;10.80;1.00;;;11.27;88.03;99980.03;5021180;28;119785;-67
2022/09/04 02:20:16;;;;;;;7.95;4.18;;;10.80;1.80;;;11.22;88.07;99982.84;5020557;28;130317;-66
2022/09/04 02:22:59;;;;;;;9.15;3.67;;;10.80;1.10;;;11.15;88.53;99981.34;5022009;28;129201;-66
2022/09/04 02:25:32;;;;;;;11.00;5.63;;;10.80;2.30;;;11.18;88.80;99979.16;5019294;28;122041;-66
2022/09/04 02:28:19;;;;;;;7.85;4.15;;;10.80;5.70;;;11.19;88.69;99983.44;5022418;28;120894;-67
2022/09/04 02:30:57;;;;;;;6.93;3.70;;;10.80;5.40;;;11.12;88.82;99979.22;5022034;28;129511;-68
2022/09/04 02:33:36;;;;;;;6.22;3.50;;;10.70;7.10;;;11.06;88.95;99983.16;5019916;28;129504;-68
2022/09/04 02:36:12;;;;;;;9.00;3.40;;;10.70;4.30;;;11.08;88.69;99983.69;5020405;28;119725;-67
2022/09/04 02:38:51;;;;;;;10.02;4.60;;;10.70;3.50;;;10.98;89.78;99978.44;5020306;28;119399;-67
2022/09/04 02:41:32;;;;;;;22.45;12.93;;;10.60;8.90;;;10.94;90.10;99982.88;5019830;28;129922;-69
2022/09/04 02:44:29;;;;;;;15.15;8.68;;;10.60;12.60;;;10.91;90.12;99981.56;5020328;28;129506;-67
2022/09/04 02:47:13;;;;;;;5.90;3.50;;;10.50;13.90;;;10.79;90.29;99984.78;5020051;28;119293;-68
2022/09/04 02:49:58;;;;;;;6.57;3.88;;;10.50;12.90;;;10.82;90.34;99977.16;5020119;28;120824;-67
2022/09/04 02:52:52;;;;;;;6.22;3.00;;;10.50;14.60;;;10.80;89.91;99977.44;5018046;28;129803;-72
2022/09/04 02:55:45;;;;;;;5.22;2.88;;;10.40;12.70;;;10.79;89.77;99976.63;5019605;28;129483;-68
2022/09/04 02:58:27;;;;;;;7.13;4.22;;;10.40;14.30;;;10.78;90.02;99980.47;5019966;28;120023;-68
2022/09/04 03:01:05;;;;;;;7.97;4.07;;;10.30;21.40;;;10.72;90.55;99980.84;5018507;28;119398;-70
2022/09/04 03:03:43;;;;;;;12.10;5.95;;;10.30;23.10;;;10.64;91.42;99982.34;5021596;28;129913;-67
2022/09/04 03:06:15;;;;;;;23.55;13.25;;;10.20;29.00;;;10.65;91.61;99981.25;5019633;28;129371;-67
2022/09/04 03:08:52;;;;;;;14.43;8.30;;;10.20;28.90;;;10.61;92.00;99985.66;5019733;28;119882;-67
2022/09/04 03:11:31;;;;;;;12.27;6.90;;;10.20;38.10;;;10.66;91.62;99982.88;5019777;28;119402;-69
2022/09/04 03:14:07;;;;;;;9.05;4.60;;;10.10;40.00;;;10.70;91.61;99978.44;5019351;28;130469;-69
2022/09/04 03:16:43;;;;;;;8.32;4.43;;;10.10;47.30;;;10.54;92.97;99979.81;5019603;28;130150;-67
2022/09/04 03:19:19;;;;;;;8.77;4.13;;;10.10;52.50;;;10.50;93.41;99978.81;5018613;28;122181;-67
2022/09/04 03:21:55;;;;;;;6.32;3.25;;;10.10;56.60;;;10.36;94.64;99978.78;5019490;28;122412;-68
2022/09/04 03:24:33;;;;;;;6.78;2.90;;;10.00;60.80;;;10.25;95.14;99984.38;5019441;28;130312;-67
2022/09/04 03:27:05;;;;;;;5.47;3.33;;;9.90;66.00;;;10.23;95.62;99985.75;5019126;28;129540;-67
2022/09/04 03:29:50;;;;;;;5.63;3.20;;;9.90;65.50;;;10.28;95.10;99987.56;5019463;28;119830;-68
2022/09/04 03:32:28;;;;;;;9.48;3.42;;;10.00;62.10;;;10.32;94.43;99989.41;5019460;28;119990;-68
2022/09/04 03:35:08;;;;;;;7.75;3.33;;;10.00;60.40;;;10.36;94.21;99993.16;5019240;28;130600;-73
2022/09/04 03:38:00;;;;;;;6.75;3.10;;;10.00;55.60;;;10.47;93.42;99995.69;5019387;28;130001;-68
2022/09/04 03:40:37;;;;;;;5.10;2.88;;;10.10;46.30;;;10.57;92.45;99990.88;5019124;28;120202;-70
2022/09/04 03:43:47;;;;;;;7.72;3.10;;;10.10;43.90;;;10.68;91.92;99996.94;5018382;28;119671;-67
2022/09/04 03:46:31;;;;;;;6.18;3.17;;;10.20;42.00;;;10.81;90.96;100002.69;5017780;28;129898;-66
2022/09/04 03:49:25;;;;;;;7.07;3.90;;;10.20;39.70;;;10.70;91.04;99997.44;5018660;28;131239;-68
2022/09/04 03:52:09;;;;;;;6.63;3.17;;;10.20;35.70;;;10.69;91.41;99993.13;5019175;28;120110;-66
2022/09/04 03:54:58;;;;;;;11.07;5.15;;;10.20;37.10;;;10.63;91.88;99986.19;5018998;28;119449;-69
2022/09/04 03:57:48;;;;;;;5.18;3.03;;;10.20;37.90;;;10.50;92.90;99987.78;5018453;28;130407;-70
2022/09/04 04:00:20;;;;;;;8.13;4.70;;;10.20;43.00;;;10.47;93.45;99998.41;5018447;28;129986;-66
2022/09/04 04:03:14;;;;;;;9.90;5.13;;;10.10;48.40;;;10.46;93.84;99999.53;5019733;27;119911;-67
2022/09/04 04:06:00;;;;;;;8.73;3.97;;;10.10;50.70;;;10.49;93.36;100004.34;5022943;28;119715;-67
2022/09/04 04:09:11;;;;;;;5.13;3.00;;;10.10;53.30;;;10.43;93.97;100022.63;5022230;28;130725;-67
2022/09/04 04:12:05;;;;;;;5.85;3.00;;;10.10;60.20;;;10.44;94.36;100010.69;5014316;28;130162;-67
2022/09/04 04:14:58;;;;;;;4.88;2.90;;;10.10;59.10;;;10.54;93.90;100023.25;5021194;28;122649;-67
2022/09/04 04:18:06;;;;;;;5.32;2.88;;;10.20;59.00;;;10.74;92.77;100022.88;5022411;28;122970;-74
2022/09/04 04:20:44;;;;;;;8.25;4.72;;;10.20;52.10;;;10.90;91.92;100031.53;5003908;27;130394;-67
2022/09/04 04:23:56;;;;;;;8.93;4.60;;;10.30;48.60;;;11.11;90.64;100040.13;5023994;28;129146;-72
2022/09/04 04:26:49;;;;;;;6.15;3.42;;;10.40;42.70;;;11.18;89.74;100041.63;5022661;28;119697;-68
2022/09/04 04:29:43;;;;;;;6.38;3.15;;;10.50;33.60;;;11.26;89.46;100043.63;5020966;28;120022;-67
2022/09/04 04:32:33;;;;;;;10.07;5.97;;;10.60;29.30;;;11.27;89.23;100048.75;5021908;28;130538;-66
2022/09/04 04:35:17;;;;;;;9.23;4.45;;;10.70;27.20;;;11.37;87.59;100038.78;5022284;28;129411;-69
2022/09/04 04:38:12;;;;;;;13.00;6.35;;;10.70;17.00;;;11.18;87.58;100050.56;5022315;28;120256;-67
2022/09/04 04:41:08;;;;;;;5.60;3.00;;;10.60;8.40;;;11.09;88.29;100045.03;5022015;28;120131;-67
2022/09/04 04:43:53;;;;;;;5.63;2.92;;;10.70;12.30;;;10.98;88.20;100035.47;5020350;28;129921;-66
2022/09/04 04:46:41;;;;;;;6.55;3.55;;;10.50;8.90;;;10.96;88.45;100038.47;5020529;28;129821;-67
2022/09/04 04:49:57;;;;;;;6.95;3.47;;;10.50;15.40;;;11.01;88.58;100032.16;5021881;28;119579;-66
2022/09/04 04:52:40;;;;;;;5.53;2.53;;;10.50;17.60;;;11.08;88.34;100038.00;5022282;28;120006;-69
2022/09/04 04:55:30;;;;;;;4.57;2.28;;;10.50;19.60;;;11.21;87.99;100041.03;5021460;28;130397;-66
2022/09/04 04:58:43;;;;;;;6.35;3.28;;;10.60;19.10;;;11.45;86.75;100041.59;5021328;28;129648;-67
2022/09/04 05:01:28;;;;;;;6.53;3.30;;;10.80;11.80;;;11.60;85.58;100043.19;5021870;28;120329;-72
2022/09/04 05:04:14;;;;;;;9.82;5.65;;;10.90;5.50;;;11.79;84.50;100048.47;5024506;28;119736;-74
2022/09/04 05:06:49;;;;;;;8.52;4.22;;;11.00;1.00;;;11.97;83.10;100041.31;5021433;28;131029;-67
2022/09/04 05:09:32;;;;;;;6.40;3.63;;;11.20;1.00;;;12.16;81.75;100043.84;5021549;28;129334;-67
2022/09/04 05:12:09;;;;;;;4.80;2.78;;;11.40;1.00;;;12.29;80.84;100052.28;5020676;28;123072;-68
2022/09/04 05:14:52;;;;;;;5.18;2.17;;;11.50;1.00;;;12.05;80.96;100048.72;5021203;28;123010;-70
2022/09/04 05:17:34;;;;;;;6.55;2.90;;;11.40;1.00;;;12.14;80.18;100051.53;5020743;28;130012;-67
2022/09/04 05:20:45;;;;;;;4.78;2.40;;;11.40;1.00;;;12.13;79.87;100051.84;5021218;28;129895;-66
2022/09/04 05:23:27;;;;;;;4.97;2.55;;;11.50;1.00;;;12.23;80.11;100052.41;4982125;28;120281;-68
2022/09/04 05:26:06;;;;;;;5.13;2.60;;;11.60;1.00;;;12.47;77.96;100047.75;5022644;27;119476;-66
2022/09/04 05:28:50;;;;;;;6.10;2.45;;;11.70;1.00;;;12.67;76.67;100051.84;5021058;28;129999;-66
2022/09/04 05:31:36;;;;;;;4.97;2.30;;;11.90;1.00;;;12.74;75.40;100047.56;5021187;28;129527;-68
2022/09/04 05:34:13;;;;;;;4.55;2.15;;;12.00;1.00;;;12.83;74.48;100050.34;5021099;28;119619;-68
2022/09/04 05:36:54;;;;;;;4.80;1.92;;;12.10;1.00;;;12.74;73.49;100053.03;5021326;28;119851;-67
2022/09/04 05:39:30;;;;;;;4.88;1.67;;;12.10;1.00;;;12.70;73.54;100048.50;5019612;28;129967;-69
2022/09/04 05:42:23;;;;;;;5.05;2.00;;;12.10;1.00;;;13.03;72.28;100053.66;5020742;28;129594;-67
2022/09/04 05:45:01;;;;;;;4.72;2.30;;;12.40;1.00;;;13.39;69.64;100050.75;5020531;28;120165;-67
2022/09/04 05:47:43;;;;;;;4.10;2.00;;;12.60;1.00;;;13.71;68.65;100056.09;5023084;28;118938;-68
2022/09/04 05:50:35;;;;;;;4.20;1.73;;;12.90;1.00;;;13.97;66.76;100065.13;5020553;28;130169;-68
2022/09/04 05:53:32;;;;;;;3.53;1.80;;;13.00;1.00;;;13.89;66.34;100052.28;5020664;28;129573;-67
2022/09/04 05:56:32;;;;;;;4.03;2.00;;;13.10;1.00;;;13.94;65.03;100057.56;5022875;28;118691;-69
2022/09/04 05:59:23;;;;;;;7.20;2.05;;;13.10;1.00;;;14.06;64.85;100056.16;5015523;27;119924;-69
2022/09/04 06:02:27;;;;;;;4.72;1.63;;;13.20;1.00;;;14.13;63.24;100061.91;5022360;28;130002;-67
2022/09/04 06:05:32;;;;;;;4.30;1.75;;;13.30;1.00;;;14.52;62.01;100050.00;5019216;28;129540;-67
2022/09/04 06:08:10;;;;;;;2.90;1.52;;;13.40;1.00;;;14.73;59.31;100063.00;5020918;28;122378;-67
2022/09/04 06:10:53;;;;;;;2.75;1.58;;;13.80;1.00;;;15.24;58.29;100060.41;5020510;28;122049;-71
2022/09/04 06:13:49;;;;;;;4.07;1.98;;;14.20;1.00;;;15.35;58.59;100056.16;5020281;28;130007;-68
2022/09/04 06:16:46;;;;;;;4.95;2.25;;;14.40;1.00;;;15.15;58.02;100056.91;5018933;28;129469;-69
2022/09/04 06:19:43;;;;;;;3.88;1.70;;;14.10;1.00;;;15.09;57.18;100059.81;5020561;28;119540;-67
2022/09/04 06:22:40;;;;;;;4.07;1.60;;;14.20;1.00;;;15.45;56.63;100066.69;5020748;28;119396;-70
2022/09/04 06:26:05;;;;;;;2.28;1.20;;;14.50;1.00;;;15.36;55.89;100068.69;5020296;28;130005;-66
2022/09/04 06:29:18;;;;;;;3.35;1.60;;;14.40;1.00;;;15.63;54.46;100067.41;5009764;27;129683;-68
2022/09/04 06:32:14;;;;;;;2.63;1.55;;;14.60;1.00;;;15.74;53.39;100067.84;5012385;27;119738;-67
2022/09/04 06:35:17;;;;;;;2.60;1.35;;;14.70;1.00;;;15.73;52.62;100077.16;5020298;28;119767;-67
2022/09/04 06:38:07;;;;;;;2.55;1.17;;;14.80;1.00;;;15.90;52.83;100064.53;5020662;28;129679;-68
2022/09/04 06:40:55;;;;;;;1.90;1.25;;;14.90;1.00;;;16.15;51.99;100077.19;5017227;28;129808;-66
2022/09/04 06:43:36;;;;;;;2.08;1.40;;;15.10;1.00;;;16.17;51.59;100069.47;5019927;28;120070;-68
2022/09/04 06:46:20;;;;;;;3.00;1.10;;;15.10;1.00;;;15.79;50.68;100069.59;5020109;28;119657;-69
2022/09/04 06:49:03;;;;;;;1.70;1.00;;;14.90;1.00;;;16.05;51.47;100069.41;5019002;28;130279;-67
2022/09/04 06:51:52;;;;;;;2.17;1.25;;;15.20;1.00;;;15.98;50.66;100060.91;5019877;28;129933;-69
2022/09/04 06:54:37;;;;;;;2.17;1.13;;;15.20;1.00;;;15.87;50.13;100065.19;5021327;28;119367;-69
2022/09/04 06:57:35;;;;;;;2.25;1.10;;;15.10;1.00;;;15.70;50.68;100066.88;5019624;28;119831;-72
2022/09/04 07:00:08;;;;;;;3.50;1.20;;;14.90;1.00;;;15.78;50.95;100068.00;5019656;28;131506;-67
2022/09/04 07:03:18;;;;;;;2.38;1.10;;;15.00;1.00;;;15.68;49.88;100071.88;5021051;28;129133;-67
2022/09/04 07:05:58;;;;;;;2.03;1.33;;;14.90;1.00;;;15.88;49.48;100072.25;5010857;27;122623;-71
2022/09/04 07:08:47;;;;;;;1.85;1.30;;;15.10;1.00;;;15.77;49.56;100075.41;5021141;28;121689;-69
2022/09/04 07:11:40;;;;;;;1.73;1.20;;;15.10;1.00;;;15.78;49.48;100079.75;5017707;28;129980;-72
2022/09/04 07:14:49;;;;;;;2.15;1.35;;;15.10;1.00;;;15.82;49.44;100075.19;5021018;28;128909;-68
2022/09/04 07:17:27;;;;;;;2.08;1.20;;;15.20;1.00;;;15.96;48.54;100083.16;5020985;28;118957;-67
2022/09/04 07:20:14;;;;;;;1.50;1.10;;;15.20;1.00;;;15.88;48.66;100080.47;5019765;28;119630;-67
2022/09/04 07:23:04;;;;;;;3.55;1.50;;;15.10;1.00;;;15.93;49.17;100080.28;5017830;28;130613;-68
2022/09/04 07:25:47;;;;;;;2.38;1.17;;;15.20;1.00;;;16.31;48.86;100079.31;5019236;28;129815;-66
2022/09/04 07:28:34;;;;;;;2.88;1.55;;;15.60;1.00;;;16.36;47.46;100087.31;5021689;28;119833;-68
2022/09/04 07:31:09;;;;;;;3.42;1.73;;;15.70;1.00;;;16.70;47.30;100079.91;5019354;28;119210;-72
2022/09/04 07:33:52;;;;;;;4.40;1.80;;;15.60;1.00;;;16.85;46.14;100086.69;5017882;28;130243;-67
2022/09/04 07:36:32;;;;;;;1.88;1.30;;;15.80;1.00;;;16.98;45.78;100079.31;5020271;28;128759;-70
2022/09/04 07:39:09;;;;;;;4.15;1.15;;;15.90;1.00;;;16.86;45.03;100082.84;5019555;28;120147;-69
2022/09/04 07:41:49;;;;;;;2.70;1.27;;;15.90;1.00;;;17.17;45.20;100071.38;5023117;28;119139;-69
2022/09/04 07:44:28;;;;;;;2.58;1.35;;;16.10;1.00;;;17.06;44.80;100076.50;5021563;28;129763;-68
2022/09/04 07:47:11;;;;;;;2.40;1.30;;;16.10;1.00;;;16.81;44.74;100085.78;5021918;28;129257;-75
2022/09/04 07:49:55;;;;;;;2.15;1.33;;;15.90;1.00;;;16.69;43.95;100078.34;5022926;28;119514;-69
2022/09/04 07:52:48;;;;;;;2.35;1.27;;;15.90;1.00;;;16.37;44.21;100083.47;5023409;28;119552;-67
2022/09/04 07:55:33;;;;;;;1.98;1.17;;;15.60;1.00;;;16.82;44.07;100082.69;5021183;28;130354;-72
2022/09/04 07:58:49;;;;;;;3.88;1.45;;;16.00;1.00;;;17.08;44.08;100076.16;5022464;28;129801;-72
2022/09/04 08:01:43;;;;;;;3.47;1.50;;;16.20;1.00;;;17.45;43.59;100080.84;5013757;27;122539;-66
2022/09/04 08:05:01;;;;;;;1.05;0.82;;;16.50;1.00;;;17.30;43.22;100079.59;5025305;28;121888;-67
2022/09/04 08:07:57;;;;;;;3.05;1.08;;;16.40;1.00;;;17.59;42.53;100092.25;5013242;27;130502;-67
2022/09/04 08:10:31;;;;;;;2.33;1.30;;;16.40;1.00;;;17.82;42.53;100084.34;5022755;28;130150;-68
2022/09/04 08:13:32;;;;;;;2.42;1.30;;;16.50;1.00;;;17.57;42.36;100095.34;5021453;28;120351;-68
2022/09/04 08:16:07;;;;;;;2.20;1.27;;;16.30;1.00;;;17.95;41.19;100077.72;5022554;28;119844;-68
2022/09/04 08:19:01;;;;;;;2.58;1.30;;;16.60;1.00;;;18.74;40.28;100070.06;5022028;28;130138;-70
2022/09/04 08:21:35;;;;;;;3.20;1.30;;;17.20;1.00;;;18.94;39.41;100079.25;5022434;28;130108;-67
2022/09/04 08:24:41;;;;;;;3.80;1.10;;;17.40;1.00;;;18.23;40.60;100076.13;5021194;28;120430;-71
2022/09/04 08:27:20;;;;;;;1.65;1.00;;;16.80;1.00;;;18.23;40.67;100084.38;5024195;28;118609;-70
2022/09/04 08:30:04;;;;;;;3.72;1.25;;;16.70;1.00;;;18.22;40.52;100091.03;5020794;28;130815;-67
2022/09/04 08:33:09;;;;;;;1.52;1.13;;;16.90;1.00;;;18.28;41.21;100084.94;5006062;28;129183;-69
2022/09/04 08:35:52;;;;;;;2.03;1.13;;;16.60;1.00;;;18.67;39.10;100079.72;5022088;28;120157;-70
2022/09/04 08:38:55;;;;;;;1.63;1.20;;;17.10;1.00;;;18.70;39.21;100080.97;5022224;28;119523;-68
2022/09/04 08:42:22;;;;;;;1.90;1.30;;;17.20;1.00;;;17.93;40.91;100085.47;5021602;28;128681;-66
2022/09/04 08:45:39;;;;;;;3.05;1.73;;;16.60;1.00;;;17.73;41.22;100087.22;5021002;28;129504;-68
2022/09/04 08:49:19;;;;;;;2.43;1.10;;;16.50;1.00;;;17.58;41.11;100085.19;5022112;28;119518;-68
2022/09/04 08:52:24;;;;;;;2.33;1.27;;;16.60;1.00;;;17.89;41.52;100084.59;5022136;28;119874;-68
2022/09/04 08:55:55;;;;;;;2.55;1.30;;;16.60;1.00;;;17.46;42.42;100088.72;5021140;28;130189;-69
2022/09/04 08:59:12;;;;;;;3.13;1.20;;;16.10;1.00;;;17.09;43.39;100096.94;5009068;28;130277;-68
2022/09/04 09:02:39;;;;;;;1.95;1.30;;;15.80;1.00;;;16.71;44.94;100092.50;5020292;28;121795;-70
2022/09/04 09:05:46;;;;;;;3.20;1.30;;;15.80;1.00;;;16.75;44.80;100092.59;5008428;27;122064;-70
2022/09/04 09:08:48;;;;;;;4.15;1.20;;;15.90;1.00;;;17.57;43.64;100084.38;5021596;28;130349;-67
2022/09/04 09:11:51;;;;;;;2.08;1.25;;;16.30;1.00;;;17.43;43.35;100090.19;5021394;28;129760;-66
2022/09/04 09:15:01;;;;;;;2.15;1.23;;;16.30;1.00;;;18.55;41.90;100070.75;5007810;27;119730;-67
2022/09/04 09:17:38;;;;;;;2.80;1.00;;;17.10;1.00;;;19.35;39.77;100074.34;5021122;28;119427;-67
2022/09/04 09:20:27;;;;;;;2.40;1.20;;;17.80;1.00;;;19.68;39.21;100076.69;5021099;28;130053;-71
2022/09/04 09:23:20;;;;;;;1.45;0.90;;;18.00;1.00;;;20.20;39.17;100068.38;5020961;28;129609;-69
2022/09/04 09:26:07;;;;;;;2.67;1.33;;;18.50;1.00;;;21.02;36.82;100080.16;5018533;28;119149;-68
2022/09/04 09:29:19;;;;;;;2.28;1.27;;;19.00;1.00;;;20.68;35.99;100077.19;5021707;28;119892;-68
2022/09/04 09:32:57;;;;;;;2.20;1.08;;;18.30;1.00;;;20.12;37.40;100081.22;5019759;28;129736;-68
2022/09/04 09:36:14;;;;;;;3.58;1.30;;;17.80;1.00;;;20.60;37.27;100070.72;5020588;28;129975;-70
2022/09/04 09:39:45;;;;;;;2.67;1.50;;;18.00;1.00;;;20.38;36.63;100066.78;5021071;28;120250;-67
2022/09/04 09:43:18;;;;;;;3.15;1.30;;;18.10;1.00;;;19.98;38.52;100067.94;5001970;27;119809;-72
2022/09/04 09:46:27;;;;;;;3.10;1.50;;;18.00;1.00;;;20.33;38.24;100069.81;4972090;28;130576;-70
2022/09/04 09:49:56;;;;;;;5.60;2.60;;;18.40;1.00;;;20.79;36.06;100072.66;5020941;28;129380;-69
2022/09/04 09:53:14;;;;;;;2.55;1.45;;;19.00;1.00;;;19.98;37.47;100070.69;5020407;28;120335;-68
2022/09/04 09:56:29;;;;;;;4.40;1.60;;;17.70;1.00;;;17.93;41.05;100062.72;5013673;28;119424;-70
2022/09/04 09:59:47;;;;;;;2.35;1.38;;;16.50;1.00;;;17.78;41.45;100077.97;5020335;28;130228;-72
2022/09/04 10:03:12;;;;;;;3.53;1.30;;;16.60;1.00;;;17.94;40.79;100065.13;5019153;28;129540;-69
2022/09/04 10:06:50;;;;;;;2.40;1.30;;;16.80;1.00;;;17.99;40.90;100066.03;5019507;28;121624;-71
2022/09/04 10:10:34;;;;;;;3.05;1.48;;;17.00;1.00;;;18.10;41.10;100061.66;4947034;27;120987;-69
2022/09/04 10:13:33;;;;;;;2.17;1.35;;;17.00;1.00;;;18.02;41.17;100059.84;5019512;28;129868;-68
2022/09/04 10:16:42;;;;;;;6.10;2.47;;;17.10;1.00;;;18.12;40.42;100068.41;5014611;28;129380;-68
2022/09/04 10:19:47;;;;;;;3.92;1.63;;;16.80;1.00;;;18.31;40.14;100062.25;5020329;28;119496;-68
2022/09/04 10:23:03;;;;;;;3.85;1.27;;;16.70;1.00;;;18.93;38.69;100058.38;5021792;28;119134;-71
2022/09/04 10:26:15;;;;;;;2.80;1.30;;;17.40;1.00;;;19.51;38.21;100055.03;4996783;28;129558;-71
2022/09/04 10:29:48;;;;;;;1.70;0.85;;;18.20;1.00;;;18.29;37.92;100059.06;4989161;27;129625;-67
2022/09/04 10:32:55;;;;;;;7.05;4.25;;;17.10;1.00;;;18.35;38.32;100061.56;5021672;28;119343;-68
2022/09/04 10:35:27;;;;;;;2.78;1.27;;;16.80;1.00;;;18.44;37.54;100048.47;4996247;27;119471;-72
2022/09/04 10:38:29;;;;;;;1.27;0.90;;;17.10;1.00;;;18.58;37.95;100054.34;5018698;28;131149;-67
2022/09/04 10:41:49;;;;;;;1.73;1.30;;;17.00;1.00;;;19.12;36.49;100049.41;5018761;27;129555;-66
2022/09/04 10:44:55;;;;;;;3.15;1.17;;;17.40;1.00;;;20.20;34.34;100051.84;5021988;27;119918;-68
2022/09/04 10:47:53;;;;;;;4.35;1.45;;;18.10;1.00;;;21.09;33.63;100046.38;5019286;28;119398;-68
2022/09/04 10:50:56;;;;;;;1.17;1.02;;;18.40;1.00;;;21.76;33.25;100042.25;5015080;27;131030;-68
2022/09/04 10:53:48;;;;;;;2.97;1.52;;;19.50;1.00;;;21.92;31.70;100048.38;5020927;28;128675;-68
2022/09/04 10:56:27;;;;;;;2.60;1.02;;;19.50;1.00;;;20.05;34.14;100045.22;5019929;28;119899;-72
2022/09/04 10:59:23;;;;;;;3.60;1.10;;;18.00;1.00;;;19.06;35.43;100039.84;5020328;28;119717;-67
2022/09/04 11:02:22;;;;;;;3.92;1.27;;;17.70;1.00;;;18.62;36.74;100047.00;5019161;28;130271;-71
2022/09/04 11:05:19;;;;;;;2.60;1.23;;;17.40;1.00;;;18.00;37.70;100045.66;5019307;28;129982;-66
2022/09/04 11:08:35;;;;;;;1.73;1.08;;;16.90;1.00;;;17.60;38.98;100048.00;5021557;28;122286;-67
2022/09/04 11:11:41;;;;;;;3.92;1.52;;;16.80;1.00;;;17.54;38.98;100043.88;5010260;27;122585;-67
2022/09/04 11:14:51;;;;;;;4.57;1.23;;;16.80;1.00;;;17.96;38.35;100046.34;5018621;28;130919;-68
2022/09/04 11:18:11;;;;;;;2.28;1.00;;;17.00;1.00;;;18.47;36.86;100036.75;4996288;27;130161;-69
2022/09/04 11:21:38;;;;;;;6.82;1.10;;;17.10;1.00;;;19.60;35.92;100030.88;4986993;28;119105;-70
2022/09/04 11:25:08;;;;;;;1.92;1.00;;;18.20;1.00;;;19.36;34.22;100035.47;4979267;28;119438;-67
2022/09/04 11:28:39;;;;;;;5.88;1.15;;;17.90;1.00;;;19.21;33.90;100041.78;5020384;28;129232;-68
2022/09/04 11:31:34;;;;;;;1.60;1.00;;;18.00;1.00;;;19.50;33.07;100031.44;5018963;28;129605;-69
2022/09/04 11:34:54;;;;;;;1.77;1.00;;;17.60;1.00;;;19.03;34.65;100036.66;5018698;28;119644;-68
2022/09/04 11:38:02;;;;;;;3.33;1.25;;;17.50;1.00;;;19.51;33.98;100027.53;5000071;27;119174;-68
2022/09/04 11:41:14;;;;;;;;;;;17.80;1.00;;;18.91;35.83;100031.25;5019707;27;130832;-69
2022/09/04 11:44:45;;;;;;;2.15;1.10;;;17.70;1.00;;;18.93;35.28;100034.47;5018437;28;130071;-69
2022/09/04 11:47:53;;;;;;;1.60;0.90;;;17.90;1.00;;;18.46;35.19;100035.16;4998892;27;120929;-66
2022/09/04 11:50:55;;;;;;;1.73;0.90;;;17.30;1.00;;;18.21;36.22;100035.28;5019379;28;119164;-67
2022/09/04 11:53:49;;;;;;;5.45;1.02;;;17.20;1.00;;;18.06;36.10;100022.28;5017587;28;130374;-68
2022/09/04 11:56:38;;;;;;;1.63;0.85;;;17.30;1.00;;;17.63;36.26;100026.53;5018977;28;129697;-68
2022/09/04 12:00:06;;;;;;;1.90;0.90;;;16.90;1.00;;;17.52;37.06;100029.72;5019192;28;119588;-69